Time;durP1;ratioP1;P1;durP2;ratioP2;P2;SDS_P1;SDS_P2;PMS_P1;PMS_P2;Temp;Humidity;BMP_temperature;BMP_pressure;BME280_temperature;BME280_humidity;BME280_pressure;Samples;Min_cycle;Max_cycle;Signal;HPM_P1;HPM_P2
2023/11/07 00:00:26;;;;;;;6.35;5.80;;;;;;;;;;2075475;28;20406;-80
2023/11/07 00:01:45;;;;;;;6.28;5.78;;;;;;;;;;2076707;28;20034;-80
2023/11/07 00:03:08;;;;;;;6.57;6.03;;;;;;;;;;2076705;28;20045;-79
2023/11/07 00:04:27;;;;;;;6.57;6.00;;;;;;;;;;2077634;28;20029;-80
2023/11/07 00:05:46;;;;;;;6.88;5.70;;;;;;;;;;2079412;28;20034;-79
2023/11/07 00:07:05;;;;;;;6.15;5.47;;;;;;;;;;2079126;28;20033;-79
2023/11/07 00:08:23;;;;;;;6.88;5.80;;;;;;;;;;2077901;28;20030;-79
2023/11/07 00:09:42;;;;;;;5.72;5.32;;;;;;;;;;2076640;28;20119;-79
2023/11/07 00:11:02;;;;;;;5.47;5.10;;;;;;;;;;2078965;28;20029;-80
2023/11/07 00:12:21;;;;;;;5.47;5.05;;;;;;;;;;2078666;28;20064;-79
2023/11/07 00:13:42;;;;;;;6.10;5.60;;;;;;;;;;2079168;28;20029;-79
2023/11/07 00:15:03;;;;;;;5.63;5.22;;;;;;;;;;2072705;28;20136;-79
2023/11/07 00:16:22;;;;;;;7.05;6.25;;;;;;;;;;2078609;28;20030;-79
2023/11/07 00:17:41;;;;;;;5.80;5.35;;;;;;;;;;2079721;28;20029;-80
2023/11/07 00:19:00;;;;;;;5.55;5.05;;;;;;;;;;2076743;28;20022;-80
2023/11/07 00:20:19;;;;;;;4.80;4.50;;;;;;;;;;2075453;28;20021;-80
2023/11/07 00:21:39;;;;;;;6.20;5.70;;;;;;;;;;2077805;28;20029;-80
2023/11/07 00:22:58;;;;;;;5.82;5.35;;;;;;;;;;2074982;28;20033;-80
2023/11/07 00:24:17;;;;;;;5.60;5.20;;;;;;;;;;2076421;28;20093;-81
2023/11/07 00:25:36;;;;;;;5.63;5.22;;;;;;;;;;2076489;28;20037;-80
2023/11/07 00:26:57;;;;;;;6.13;5.63;;;;;;;;;;2077115;28;20030;-81
2023/11/07 00:28:16;;;;;;;5.72;5.32;;;;;;;;;;2077728;28;20033;-81
2023/11/07 00:29:35;;;;;;;5.55;5.15;;;;;;;;;;2076121;28;20046;-80
2023/11/07 00:30:55;;;;;;;5.88;5.38;;;;;;;;;;2076386;28;20030;-80
2023/11/07 00:32:14;;;;;;;5.53;5.13;;;;;;;;;;2080109;28;20112;-80
2023/11/07 00:33:33;;;;;;;5.00;4.65;;;;;;;;;;2079684;28;20026;-80
2023/11/07 00:34:53;;;;;;;7.22;5.25;;;;;;;;;;2077077;28;20022;-80
2023/11/07 00:36:12;;;;;;;5.75;5.00;;;;;;;;;;2076559;28;20038;-79
2023/11/07 00:37:31;;;;;;;5.80;5.30;;;;;;;;;;2076093;28;20029;-80
2023/11/07 00:38:50;;;;;;;5.70;5.25;;;;;;;;;;2076972;28;20033;-79
2023/11/07 00:40:10;;;;;;;5.80;5.30;;;;;;;;;;2077816;28;20025;-80
2023/11/07 00:41:29;;;;;;;5.47;5.07;;;;;;;;;;2076043;28;20033;-81
2023/11/07 00:42:48;;;;;;;5.63;5.13;;;;;;;;;;2077299;28;20054;-80
2023/11/07 00:44:07;;;;;;;5.25;4.93;;;;;;;;;;2076456;28;20034;-80
2023/11/07 00:45:26;;;;;;;5.45;5.05;;;;;;;;;;2078895;28;20112;-81
2023/11/07 00:46:45;;;;;;;5.50;5.00;;;;;;;;;;2076261;28;20022;-80
2023/11/07 00:48:07;;;;;;;5.60;5.03;;;;;;;;;;2075891;28;20018;-80
2023/11/07 00:49:26;;;;;;;5.07;4.57;;;;;;;;;;2077486;28;20025;-81
2023/11/07 00:50:45;;;;;;;5.90;4.70;;;;;;;;;;2076302;28;20242;-81
2023/11/07 00:52:04;;;;;;;6.13;4.72;;;;;;;;;;2074707;28;20033;-80
2023/11/07 00:53:23;;;;;;;5.45;4.70;;;;;;;;;;2080397;28;20029;-81
2023/11/07 00:54:44;;;;;;;5.40;4.95;;;;;;;;;;2075659;28;20042;-80
2023/11/07 00:56:03;;;;;;;6.22;5.38;;;;;;;;;;2077272;28;20030;-80
2023/11/07 00:57:22;;;;;;;5.35;4.88;;;;;;;;;;2075404;28;20113;-80
2023/11/07 00:58:41;;;;;;;5.05;4.50;;;;;;;;;;2076864;28;20022;-81
2023/11/07 01:00:00;;;;;;;5.65;5.25;;;;;;;;;;2078184;28;20022;-80
2023/11/07 01:01:19;;;;;;;5.50;5.10;;;;;;;;;;2078748;28;20034;-80
2023/11/07 01:02:37;;;;;;;5.20;4.80;;;;;;;;;;2076708;28;20034;-81
2023/11/07 01:03:57;;;;;;;4.85;4.50;;;;;;;;;;2076468;28;20022;-81
2023/11/07 01:05:18;;;;;;;4.85;4.43;;;;;;;;;;2076953;28;20104;-81
2023/11/07 01:06:37;;;;;;;6.03;4.97;;;;;;;;;;2078447;28;20030;-81
2023/11/07 01:07:56;;;;;;;5.35;4.88;;;;;;;;;;2078277;28;20030;-80
2023/11/07 01:09:16;;;;;;;6.22;5.72;;;;;;;;;;2074544;28;20717;-80
2023/11/07 01:10:35;;;;;;;5.45;4.95;;;;;;;;;;2077927;28;20030;-80
2023/11/07 01:11:54;;;;;;;5.13;4.82;;;;;;;;;;2077202;28;20545;-80
2023/11/07 01:13:14;;;;;;;5.57;5.03;;;;;;;;;;2078661;28;20061;-80
2023/11/07 01:14:34;;;;;;;4.53;4.22;;;;;;;;;;2077994;28;20026;-79
2023/11/07 01:15:52;;;;;;;4.82;4.47;;;;;;;;;;2078775;28;20021;-80
2023/11/07 01:17:12;;;;;;;5.47;5.07;;;;;;;;;;2076001;28;20029;-80
2023/11/07 01:18:31;;;;;;;5.40;5.00;;;;;;;;;;2075436;28;20130;-80
2023/11/07 01:19:50;;;;;;;6.35;5.32;;;;;;;;;;2076429;28;20025;-80
2023/11/07 01:21:10;;;;;;;4.88;4.43;;;;;;;;;;2076961;28;20029;-80
2023/11/07 01:22:29;;;;;;;5.03;4.70;;;;;;;;;;2077506;28;20034;-79
2023/11/07 01:23:48;;;;;;;5.05;4.65;;;;;;;;;;2085179;28;20033;-79
2023/11/07 01:25:09;;;;;;;5.05;4.63;;;;;;;;;;2080370;28;20038;-79
2023/11/07 01:26:28;;;;;;;5.30;4.88;;;;;;;;;;2075476;28;20558;-80
2023/11/07 01:27:47;;;;;;;5.63;5.22;;;;;;;;;;2076707;28;20033;-79
2023/11/07 01:29:06;;;;;;;5.85;5.30;;;;;;;;;;2076458;28;20022;-80
2023/11/07 01:30:26;;;;;;;5.88;5.10;;;;;;;;;;2077957;28;20026;-80
2023/11/07 01:31:50;;;;;;;5.90;4.78;;;;;;;;;;2077598;28;20026;-80
2023/11/07 01:33:09;;;;;;;5.50;5.10;;;;;;;;;;2077920;28;20382;-80
2023/11/07 01:34:28;;;;;;;5.15;4.68;;;;;;;;;;2079072;28;20034;-81
2023/11/07 01:35:47;;;;;;;5.22;4.80;;;;;;;;;;2077264;28;20038;-80
2023/11/07 01:37:09;;;;;;;5.28;4.88;;;;;;;;;;2076828;28;20018;-80
2023/11/07 01:38:28;;;;;;;5.43;5.03;;;;;;;;;;2077310;28;20037;-81
2023/11/07 01:39:47;;;;;;;6.00;5.40;;;;;;;;;;2073650;28;20025;-80
2023/11/07 01:41:06;;;;;;;5.10;4.70;;;;;;;;;;2071711;28;20498;-80
2023/11/07 01:42:25;;;;;;;5.32;4.90;;;;;;;;;;2085494;28;20037;-80
2023/11/07 01:43:44;;;;;;;5.43;4.97;;;;;;;;;;2082501;28;20062;-81
2023/11/07 01:45:04;;;;;;;5.45;4.95;;;;;;;;;;2076284;28;20022;-81
2023/11/07 01:46:23;;;;;;;4.82;4.53;;;;;;;;;;2075364;28;20061;-81
2023/11/07 01:47:43;;;;;;;5.55;5.15;;;;;;;;;;2074718;28;20026;-81
2023/11/07 01:49:03;;;;;;;5.07;4.68;;;;;;;;;;2076496;28;20033;-80
2023/11/07 01:50:22;;;;;;;5.38;4.97;;;;;;;;;;2084324;28;20108;-80
2023/11/07 01:51:40;;;;;;;5.15;4.75;;;;;;;;;;2076790;28;20498;-81
2023/11/07 01:53:01;;;;;;;5.25;4.85;;;;;;;;;;2072704;28;20033;-80
2023/11/07 01:54:21;;;;;;;6.28;5.75;;;;;;;;;;2071385;28;20527;-80
2023/11/07 01:55:40;;;;;;;5.30;4.90;;;;;;;;;;2067934;28;20026;-81
2023/11/07 01:57:00;;;;;;;5.35;4.95;;;;;;;;;;2074272;28;20118;-82
2023/11/07 01:58:20;;;;;;;6.25;5.75;;;;;;;;;;2076633;28;20014;-81
2023/11/07 01:59:40;;;;;;;5.53;5.13;;;;;;;;;;2076707;28;20033;-80
2023/11/07 02:00:59;;;;;;;5.97;5.35;;;;;;;;;;2076907;28;20048;-80
2023/11/07 02:02:19;;;;;;;5.60;5.10;;;;;;;;;;2072188;28;20452;-81
2023/11/07 02:03:38;;;;;;;5.30;4.90;;;;;;;;;;2074978;28;20022;-81
2023/11/07 02:04:57;;;;;;;5.50;4.88;;;;;;;;;;2072643;28;20053;-80
2023/11/07 02:06:16;;;;;;;5.47;5.07;;;;;;;;;;2073332;28;20030;-81
2023/11/07 02:07:38;;;;;;;5.80;5.13;;;;;;;;;;2072737;28;20548;-80
2023/11/07 02:08:57;;;;;;;6.05;5.50;;;;;;;;;;2072899;28;20057;-80
2023/11/07 02:10:17;;;;;;;5.22;4.93;;;;;;;;;;2076298;28;20432;-80
2023/11/07 02:11:36;;;;;;;5.15;4.65;;;;;;;;;;2076039;28;20029;-81
2023/11/07 02:12:56;;;;;;;5.25;4.95;;;;;;;;;;2075198;28;20030;-80
2023/11/07 02:14:27;;;;;;;5.70;5.18;;;;;;;;;;2078592;28;20401;-81
2023/11/07 02:15:46;;;;;;;5.70;5.05;;;;;;;;;;2075138;28;20448;-80
2023/11/07 02:17:05;;;;;;;5.35;4.95;;;;;;;;;;2072886;28;20037;-79
2023/11/07 02:18:24;;;;;;;4.75;4.45;;;;;;;;;;2076275;28;20030;-80
2023/11/07 02:19:43;;;;;;;5.68;5.20;;;;;;;;;;2077334;28;20022;-80
2023/11/07 02:21:03;;;;;;;5.28;4.97;;;;;;;;;;2078604;28;20166;-82
2023/11/07 02:22:23;;;;;;;6.00;5.40;;;;;;;;;;2078182;28;20029;-80
2023/11/07 02:23:41;;;;;;;6.07;5.22;;;;;;;;;;2076174;28;20041;-80
2023/11/07 02:25:00;;;;;;;5.40;5.00;;;;;;;;;;2079276;28;20042;-81
2023/11/07 02:26:20;;;;;;;6.15;5.00;;;;;;;;;;2076984;28;20494;-82
2023/11/07 02:27:39;;;;;;;6.15;5.40;;;;;;;;;;2076072;28;20211;-80
2023/11/07 02:28:58;;;;;;;5.18;4.75;;;;;;;;;;2074466;28;20418;-80
2023/11/07 02:30:17;;;;;;;4.88;4.47;;;;;;;;;;2072839;28;20034;-80
2023/11/07 02:31:36;;;;;;;5.25;4.85;;;;;;;;;;2075684;28;20042;-80
2023/11/07 02:32:56;;;;;;;5.50;4.95;;;;;;;;;;2076536;28;20030;-79
2023/11/07 02:34:16;;;;;;;5.38;4.97;;;;;;;;;;2075241;28;20029;-79
2023/11/07 02:35:35;;;;;;;5.30;4.95;;;;;;;;;;2075163;28;20026;-80
2023/11/07 02:36:54;;;;;;;5.85;5.35;;;;;;;;;;2076741;28;20034;-80
2023/11/07 02:38:13;;;;;;;5.93;5.25;;;;;;;;;;2076666;28;20030;-80
2023/11/07 02:39:32;;;;;;;5.55;5.05;;;;;;;;;;2077093;28;20061;-80
2023/11/07 02:40:51;;;;;;;5.78;5.22;;;;;;;;;;2079071;28;20026;-80
2023/11/07 02:42:10;;;;;;;5.63;5.22;;;;;;;;;;2077201;28;20033;-80
2023/11/07 02:43:29;;;;;;;5.15;4.85;;;;;;;;;;2076810;28;20045;-81
2023/11/07 02:44:49;;;;;;;5.70;5.20;;;;;;;;;;2076603;28;20093;-80
2023/11/07 02:46:08;;;;;;;5.28;4.88;;;;;;;;;;2075868;28;20018;-80
2023/11/07 02:47:26;;;;;;;5.47;5.03;;;;;;;;;;2078003;28;20029;-80
2023/11/07 02:48:45;;;;;;;5.30;4.90;;;;;;;;;;2078449;28;20029;-80
2023/11/07 02:50:05;;;;;;;6.03;5.63;;;;;;;;;;2074123;28;20065;-80
2023/11/07 02:51:24;;;;;;;4.82;4.53;;;;;;;;;;2077101;28;20022;-80
2023/11/07 02:52:43;;;;;;;5.95;5.45;;;;;;;;;;2075089;28;20117;-80
2023/11/07 02:54:02;;;;;;;5.78;5.25;;;;;;;;;;2078055;28;20108;-80
2023/11/07 02:55:21;;;;;;;5.75;5.35;;;;;;;;;;2078508;28;20487;-80
2023/11/07 02:56:42;;;;;;;5.85;4.80;;;;;;;;;;2079727;28;20494;-80
2023/11/07 02:58:01;;;;;;;9.05;5.50;;;;;;;;;;2078914;28;20046;-80
2023/11/07 02:59:21;;;;;;;5.97;5.38;;;;;;;;;;2078791;28;20022;-80
2023/11/07 03:00:40;;;;;;;5.85;5.45;;;;;;;;;;2076404;28;21455;-80
2023/11/07 03:02:01;;;;;;;5.50;4.68;;;;;;;;;;2077946;28;20109;-80
2023/11/07 03:03:20;;;;;;;6.07;5.57;;;;;;;;;;2079716;28;20026;-80
2023/11/07 03:04:39;;;;;;;5.50;5.10;;;;;;;;;;2082568;28;20037;-80
2023/11/07 03:05:58;;;;;;;5.63;5.22;;;;;;;;;;2087226;28;20021;-80
2023/11/07 03:07:17;;;;;;;5.95;5.53;;;;;;;;;;2084729;28;20013;-80
2023/11/07 03:08:36;;;;;;;5.70;5.20;;;;;;;;;;2085232;28;20026;-80
2023/11/07 03:09:55;;;;;;;6.13;5.63;;;;;;;;;;2082270;28;20382;-79
2023/11/07 03:11:14;;;;;;;6.13;5.65;;;;;;;;;;2081012;28;20086;-80
2023/11/07 03:12:34;;;;;;;5.90;5.40;;;;;;;;;;2079552;28;20056;-80
2023/11/07 03:13:52;;;;;;;7.72;4.93;;;;;;;;;;2080789;28;20029;-80
2023/11/07 03:15:13;;;;;;;5.80;5.40;;;;;;;;;;2080677;28;20033;-79
2023/11/07 03:16:35;;;;;;;5.78;5.38;;;;;;;;;;2079326;28;20256;-79
2023/11/07 03:17:54;;;;;;;5.43;4.97;;;;;;;;;;2080698;28;20030;-80
2023/11/07 03:19:13;;;;;;;5.38;4.95;;;;;;;;;;2080035;28;20021;-81
2023/11/07 03:20:32;;;;;;;6.38;5.80;;;;;;;;;;2079196;28;20482;-80
2023/11/07 03:21:51;;;;;;;7.10;5.65;;;;;;;;;;2077375;28;20026;-80
2023/11/07 03:23:10;;;;;;;6.15;5.65;;;;;;;;;;2078808;28;20077;-80
2023/11/07 03:24:29;;;;;;;5.97;5.30;;;;;;;;;;2077463;28;20034;-81
2023/11/07 03:25:48;;;;;;;5.82;5.25;;;;;;;;;;2079011;28;20034;-80
2023/11/07 03:27:07;;;;;;;5.82;5.15;;;;;;;;;;2074072;28;20038;-80
2023/11/07 03:28:26;;;;;;;5.55;5.13;;;;;;;;;;2076076;28;20425;-79
2023/11/07 03:29:48;;;;;;;5.32;4.93;;;;;;;;;;2078457;28;20029;-79
2023/11/07 03:31:07;;;;;;;6.32;5.55;;;;;;;;;;2077102;28;20022;-79
2023/11/07 03:32:29;;;;;;;5.70;5.30;;;;;;;;;;2071783;28;20038;-80
2023/11/07 03:33:48;;;;;;;6.03;5.45;;;;;;;;;;2074439;28;20109;-80
2023/11/07 03:35:07;;;;;;;5.90;5.40;;;;;;;;;;2074900;28;20022;-80
2023/11/07 03:36:26;;;;;;;6.47;5.60;;;;;;;;;;2076573;28;20398;-80
2023/11/07 03:37:45;;;;;;;5.88;5.47;;;;;;;;;;2073788;28;20029;-80
2023/11/07 03:39:04;;;;;;;6.20;5.68;;;;;;;;;;2074777;28;20029;-79
2023/11/07 03:40:23;;;;;;;6.03;5.53;;;;;;;;;;2076909;28;20406;-79
2023/11/07 03:41:42;;;;;;;6.10;5.60;;;;;;;;;;2079390;28;20037;-79
2023/11/07 03:43:02;;;;;;;6.03;5.57;;;;;;;;;;2076465;28;20045;-79
2023/11/07 03:44:21;;;;;;;5.50;5.00;;;;;;;;;;2077848;28;20653;-79
2023/11/07 03:45:41;;;;;;;5.95;5.45;;;;;;;;;;2078815;28;20029;-80
2023/11/07 03:46:59;;;;;;;5.95;5.50;;;;;;;;;;2079091;28;20033;-79
2023/11/07 03:48:18;;;;;;;5.75;5.30;;;;;;;;;;2076919;28;20029;-79
2023/11/07 03:49:42;;;;;;;5.97;5.38;;;;;;;;;;2076389;28;20037;-79
2023/11/07 03:51:00;;;;;;;6.47;5.60;;;;;;;;;;2078158;28;20034;-80
2023/11/07 03:52:19;;;;;;;6.13;5.72;;;;;;;;;;2078080;28;20049;-80
2023/11/07 03:53:39;;;;;;;6.15;5.55;;;;;;;;;;2074992;28;20034;-79
2023/11/07 03:54:58;;;;;;;5.93;5.43;;;;;;;;;;2077189;28;20513;-80
2023/11/07 03:56:17;;;;;;;5.90;5.40;;;;;;;;;;2077144;28;20014;-80
2023/11/07 03:57:36;;;;;;;6.07;5.47;;;;;;;;;;2077328;28;20026;-79
2023/11/07 03:58:55;;;;;;;6.05;5.55;;;;;;;;;;2076615;28;20033;-79
2023/11/07 04:00:13;;;;;;;7.50;5.47;;;;;;;;;;2075492;28;20037;-80
2023/11/07 04:01:36;;;;;;;5.82;5.32;;;;;;;;;;2075928;28;20069;-80
2023/11/07 04:02:56;;;;;;;5.72;5.22;;;;;;;;;;2074836;28;20198;-80
2023/11/07 04:04:14;;;;;;;5.78;5.32;;;;;;;;;;2076994;28;20437;-80
2023/11/07 04:05:33;;;;;;;6.53;5.30;;;;;;;;;;2079482;28;20116;-80
2023/11/07 04:06:52;;;;;;;6.47;5.97;;;;;;;;;;2078356;28;20303;-80
2023/11/07 04:08:11;;;;;;;6.57;6.05;;;;;;;;;;2077666;28;20056;-80
2023/11/07 04:09:30;;;;;;;6.15;5.65;;;;;;;;;;2076509;28;20636;-79
2023/11/07 04:10:49;;;;;;;6.93;6.30;;;;;;;;;;2076057;28;20601;-80
2023/11/07 04:12:08;;;;;;;5.85;5.45;;;;;;;;;;2075231;28;20033;-80
2023/11/07 04:13:27;;;;;;;6.45;5.88;;;;;;;;;;2078184;28;20022;-79
2023/11/07 04:14:46;;;;;;;5.70;5.30;;;;;;;;;;2071491;28;20022;-79
2023/11/07 04:16:05;;;;;;;5.93;5.50;;;;;;;;;;2075846;28;20041;-79
2023/11/07 04:17:24;;;;;;;5.88;5.47;;;;;;;;;;2078299;28;20033;-80
2023/11/07 04:18:43;;;;;;;6.03;5.63;;;;;;;;;;2075683;28;20026;-80
2023/11/07 04:20:03;;;;;;;6.45;5.85;;;;;;;;;;2073048;28;22074;-80
2023/11/07 04:21:22;;;;;;;6.10;5.50;;;;;;;;;;2077812;28;20025;-80
2023/11/07 04:22:41;;;;;;;6.43;5.93;;;;;;;;;;2077118;28;20109;-79
2023/11/07 04:24:00;;;;;;;6.28;5.78;;;;;;;;;;2074481;28;20445;-79
2023/11/07 04:25:19;;;;;;;6.30;5.80;;;;;;;;;;2076788;28;20139;-80
2023/11/07 04:26:38;;;;;;;6.45;5.90;;;;;;;;;;2078526;28;20030;-80
2023/11/07 04:27:57;;;;;;;6.40;5.90;;;;;;;;;;2078939;28;20025;-80
2023/11/07 04:29:19;;;;;;;6.07;5.53;;;;;;;;;;2079583;28;20038;-80
2023/11/07 04:30:37;;;;;;;6.32;5.82;;;;;;;;;;2079966;28;20026;-80
2023/11/07 04:31:58;;;;;;;6.45;5.95;;;;;;;;;;2075349;28;20071;-80
2023/11/07 04:33:16;;;;;;;6.40;5.90;;;;;;;;;;2078138;28;20022;-79
2023/11/07 04:34:37;;;;;;;6.03;5.53;;;;;;;;;;2079094;28;20033;-80
2023/11/07 04:35:56;;;;;;;6.55;6.05;;;;;;;;;;2074688;28;20117;-80
2023/11/07 04:37:15;;;;;;;6.65;6.05;;;;;;;;;;2077886;28;20057;-81
2023/11/07 04:38:35;;;;;;;6.30;5.78;;;;;;;;;;2079699;28;20029;-80
2023/11/07 04:39:54;;;;;;;6.38;5.88;;;;;;;;;;2078803;28;20029;-80
2023/11/07 04:41:13;;;;;;;6.63;6.13;;;;;;;;;;2076600;28;20025;-80
2023/11/07 04:42:32;;;;;;;6.57;5.97;;;;;;;;;;2073391;28;20620;-80
2023/11/07 04:43:52;;;;;;;7.07;6.38;;;;;;;;;;2076364;28;20529;-81
2023/11/07 04:45:12;;;;;;;14.13;6.35;;;;;;;;;;2079416;28;20060;-80
2023/11/07 04:46:31;;;;;;;6.60;6.00;;;;;;;;;;2079493;28;20029;-80
2023/11/07 04:47:50;;;;;;;6.30;5.80;;;;;;;;;;2073140;28;20026;-80
2023/11/07 04:49:10;;;;;;;6.68;6.13;;;;;;;;;;2075875;28;20034;-80
2023/11/07 04:50:29;;;;;;;6.57;6.07;;;;;;;;;;2079587;28;20025;-80
2023/11/07 04:51:48;;;;;;;6.57;6.07;;;;;;;;;;2077037;28;20582;-81
2023/11/07 04:53:07;;;;;;;5.93;5.43;;;;;;;;;;2076995;28;20026;-80
2023/11/07 04:54:26;;;;;;;7.03;6.30;;;;;;;;;;2074479;28;20045;-81
2023/11/07 04:55:46;;;;;;;8.13;5.97;;;;;;;;;;2075226;28;20034;-80
2023/11/07 04:57:08;;;;;;;7.05;6.45;;;;;;;;;;2078764;28;20018;-80
2023/11/07 04:58:27;;;;;;;6.55;6.05;;;;;;;;;;2075063;28;20026;-79
2023/11/07 04:59:46;;;;;;;6.50;6.00;;;;;;;;;;2076250;28;20025;-80
2023/11/07 05:01:07;;;;;;;7.68;6.47;;;;;;;;;;2080510;28;20029;-79
2023/11/07 05:02:26;;;;;;;6.28;5.72;;;;;;;;;;2080154;28;20036;-80
2023/11/07 05:03:45;;;;;;;6.82;6.22;;;;;;;;;;2073709;28;20065;-79
2023/11/07 05:05:04;;;;;;;7.10;6.35;;;;;;;;;;2076499;28;20033;-79
2023/11/07 05:06:25;;;;;;;7.22;6.57;;;;;;;;;;2084430;28;20025;-79
2023/11/07 05:07:45;;;;;;;6.55;6.05;;;;;;;;;;2082617;28;20100;-80
2023/11/07 05:09:08;;;;;;;7.75;6.57;;;;;;;;;;2077787;28;20068;-79
2023/11/07 05:10:27;;;;;;;7.18;6.57;;;;;;;;;;2075991;28;20033;-79
2023/11/07 05:11:45;;;;;;;6.82;6.30;;;;;;;;;;2073950;28;20042;-80
2023/11/07 05:13:06;;;;;;;7.15;6.55;;;;;;;;;;2077994;28;20109;-80
2023/11/07 05:14:27;;;;;;;6.55;5.60;;;;;;;;;;2079817;28;20433;-79
2023/11/07 05:15:47;;;;;;;6.75;6.20;;;;;;;;;;2076159;28;20766;-79
2023/11/07 05:17:06;;;;;;;7.13;6.55;;;;;;;;;;2075565;28;20025;-79
2023/11/07 05:18:26;;;;;;;6.90;6.35;;;;;;;;;;2074205;28;20026;-80
2023/11/07 05:19:44;;;;;;;8.98;7.20;;;;;;;;;;2077543;28;20034;-79
2023/11/07 05:21:04;;;;;;;7.70;7.00;;;;;;;;;;2081488;28;20445;-79
2023/11/07 05:22:24;;;;;;;7.07;6.38;;;;;;;;;;2079229;28;20467;-79
2023/11/07 05:23:43;;;;;;;6.60;6.07;;;;;;;;;;2076470;28;20033;-79
2023/11/07 05:25:05;;;;;;;7.10;6.50;;;;;;;;;;2076646;28;20033;-79
2023/11/07 05:26:24;;;;;;;7.25;6.55;;;;;;;;;;2079459;28;21587;-79
2023/11/07 05:27:43;;;;;;;7.82;6.57;;;;;;;;;;2080520;28;20029;-78
2023/11/07 05:29:02;;;;;;;7.30;6.60;;;;;;;;;;2079221;28;20112;-80
2023/11/07 05:30:21;;;;;;;7.82;6.90;;;;;;;;;;2068184;28;21185;-80
2023/11/07 05:31:40;;;;;;;7.80;7.10;;;;;;;;;;2070865;28;20045;-78
2023/11/07 05:32:59;;;;;;;7.88;6.95;;;;;;;;;;2078770;28;20026;-79
2023/11/07 05:34:18;;;;;;;7.38;6.68;;;;;;;;;;2080386;28;20018;-78
2023/11/07 05:35:37;;;;;;;7.53;6.82;;;;;;;;;;2075862;28;20072;-77
2023/11/07 05:36:57;;;;;;;7.57;6.80;;;;;;;;;;2078933;28;20478;-80
2023/11/07 05:38:16;;;;;;;6.97;6.38;;;;;;;;;;2077467;28;20033;-80
2023/11/07 05:39:35;;;;;;;7.32;6.72;;;;;;;;;;2077166;28;20034;-80
2023/11/07 05:40:54;;;;;;;7.47;6.88;;;;;;;;;;2074340;28;20026;-80
2023/11/07 05:42:13;;;;;;;7.38;6.70;;;;;;;;;;2076267;28;20044;-81
2023/11/07 05:43:31;;;;;;;7.63;6.90;;;;;;;;;;2078119;28;20494;-78
2023/11/07 05:44:50;;;;;;;7.97;7.28;;;;;;;;;;2077833;28;20173;-78
2023/11/07 05:46:09;;;;;;;7.88;6.97;;;;;;;;;;2077591;28;20592;-80
2023/11/07 05:47:28;;;;;;;11.93;7.43;;;;;;;;;;2080210;28;20033;-79
2023/11/07 05:48:51;;;;;;;9.10;7.20;;;;;;;;;;2077056;28;20029;-78
2023/11/07 05:50:10;;;;;;;7.55;6.85;;;;;;;;;;2077782;28;20120;-79
2023/11/07 05:51:29;;;;;;;7.57;6.97;;;;;;;;;;2075295;28;20051;-78
2023/11/07 05:52:48;;;;;;;7.60;6.75;;;;;;;;;;2081313;28;20455;-77
2023/11/07 05:54:09;;;;;;;7.82;7.13;;;;;;;;;;2081308;28;20431;-78
2023/11/07 05:55:28;;;;;;;7.50;6.80;;;;;;;;;;2080329;28;20112;-79
2023/11/07 05:56:47;;;;;;;8.40;7.65;;;;;;;;;;2078607;28;20030;-78
2023/11/07 05:58:08;;;;;;;8.13;7.43;;;;;;;;;;2075503;28;20525;-80
2023/11/07 05:59:27;;;;;;;9.25;7.55;;;;;;;;;;2075160;28;20041;-78
2023/11/07 06:00:47;;;;;;;7.95;7.25;;;;;;;;;;2076498;28;20034;-78
2023/11/07 06:02:08;;;;;;;7.82;7.07;;;;;;;;;;2077963;28;20149;-78
2023/11/07 06:03:28;;;;;;;10.50;8.20;;;;;;;;;;2077459;28;20037;-78
2023/11/07 06:04:46;;;;;;;8.13;7.32;;;;;;;;;;2070518;28;20042;-78
2023/11/07 06:06:05;;;;;;;8.80;7.82;;;;;;;;;;2074725;28;20022;-78
2023/11/07 06:07:24;;;;;;;8.82;7.22;;;;;;;;;;2076320;28;20026;-78
2023/11/07 06:08:43;;;;;;;8.52;7.65;;;;;;;;;;2077415;28;20033;-79
2023/11/07 06:10:03;;;;;;;8.00;7.20;;;;;;;;;;2078971;28;20246;-80
2023/11/07 06:11:25;;;;;;;7.47;6.72;;;;;;;;;;2064687;28;20038;-79
2023/11/07 06:12:44;;;;;;;8.43;7.63;;;;;;;;;;2073169;28;20112;-80
2023/11/07 06:14:03;;;;;;;7.65;6.93;;;;;;;;;;2074839;28;20029;-79
2023/11/07 06:15:26;;;;;;;7.90;7.20;;;;;;;;;;2076556;28;20319;-80
2023/11/07 06:16:45;;;;;;;8.05;7.25;;;;;;;;;;2078965;28;20505;-80
2023/11/07 06:18:04;;;;;;;8.05;7.35;;;;;;;;;;2080091;28;20153;-81
2023/11/07 06:19:23;;;;;;;7.90;7.15;;;;;;;;;;2079612;28;20108;-79
2023/11/07 06:20:43;;;;;;;7.70;7.00;;;;;;;;;;2080351;28;20030;-79
2023/11/07 06:22:02;;;;;;;8.27;7.13;;;;;;;;;;2076426;28;20033;-80
2023/11/07 06:23:22;;;;;;;7.47;6.88;;;;;;;;;;2074542;28;20108;-79
2023/11/07 06:24:42;;;;;;;7.28;6.70;;;;;;;;;;2075607;28;20021;-79
2023/11/07 06:26:05;;;;;;;8.20;7.35;;;;;;;;;;2077723;28;20058;-80
2023/11/07 06:27:23;;;;;;;10.68;7.28;;;;;;;;;;2079061;28;20033;-81
2023/11/07 06:28:42;;;;;;;7.25;6.65;;;;;;;;;;2082423;28;20026;-80
2023/11/07 06:30:03;;;;;;;9.05;6.43;;;;;;;;;;2081422;28;20065;-81
2023/11/07 06:31:26;;;;;;;7.82;6.78;;;;;;;;;;2081337;28;20018;-81
2023/11/07 06:32:46;;;;;;;7.03;6.47;;;;;;;;;;2081339;28;20029;-81
2023/11/07 06:34:05;;;;;;;7.13;6.53;;;;;;;;;;2077140;28;20041;-80
2023/11/07 06:35:23;;;;;;;7.28;6.53;;;;;;;;;;2090948;28;20037;-79
2023/11/07 06:36:43;;;;;;;6.97;6.32;;;;;;;;;;2086738;28;20029;-80
2023/11/07 06:38:03;;;;;;;7.60;6.90;;;;;;;;;;2086867;28;20089;-81
2023/11/07 06:39:23;;;;;;;7.18;6.53;;;;;;;;;;2083644;28;20031;-80
2023/11/07 06:40:42;;;;;;;7.00;6.30;;;;;;;;;;2085089;28;20046;-81
2023/11/07 06:42:02;;;;;;;7.55;6.95;;;;;;;;;;2080473;28;20093;-79
2023/11/07 06:43:22;;;;;;;7.45;6.78;;;;;;;;;;2086719;28;20025;-80
2023/11/07 06:44:42;;;;;;;7.18;6.47;;;;;;;;;;2089311;28;20021;-80
2023/11/07 06:46:01;;;;;;;6.72;6.10;;;;;;;;;;2084535;28;20176;-79
2023/11/07 06:47:21;;;;;;;8.32;6.63;;;;;;;;;;2084554;28;20022;-79
2023/11/07 06:48:43;;;;;;;8.77;6.38;;;;;;;;;;2080029;28;20054;-79
2023/11/07 06:50:02;;;;;;;7.45;6.75;;;;;;;;;;2078783;28;20109;-82
2023/11/07 06:51:21;;;;;;;6.82;6.32;;;;;;;;;;2080179;28;20021;-81
2023/11/07 06:52:41;;;;;;;6.70;6.15;;;;;;;;;;2081681;28;20037;-80
2023/11/07 06:54:04;;;;;;;6.25;5.75;;;;;;;;;;2079136;28;20403;-80
2023/11/07 06:55:25;;;;;;;7.18;6.47;;;;;;;;;;2075968;28;20660;-76
2023/11/07 06:56:45;;;;;;;8.40;7.10;;;;;;;;;;2075904;28;20033;-80
2023/11/07 06:58:04;;;;;;;8.98;6.72;;;;;;;;;;2076860;28;20021;-80
2023/11/07 06:59:23;;;;;;;8.35;6.78;;;;;;;;;;2074970;28;20025;-79
2023/11/07 07:00:44;;;;;;;8.23;7.53;;;;;;;;;;2077937;28;20544;-79
2023/11/07 07:02:03;;;;;;;7.53;6.82;;;;;;;;;;2076699;28;20033;-80
2023/11/07 07:03:25;;;;;;;6.57;6.07;;;;;;;;;;2076775;28;20034;-80
2023/11/07 07:04:44;;;;;;;8.10;7.30;;;;;;;;;;2076066;28;20069;-79
2023/11/07 07:06:03;;;;;;;9.23;7.20;;;;;;;;;;2078359;28;20034;-80
2023/11/07 07:07:22;;;;;;;7.03;6.53;;;;;;;;;;2078178;28;20065;-79
2023/11/07 07:08:41;;;;;;;7.63;6.93;;;;;;;;;;2079076;28;20071;-80
2023/11/07 07:10:00;;;;;;;7.88;6.90;;;;;;;;;;2078822;28;20026;-79
2023/11/07 07:11:20;;;;;;;8.23;6.82;;;;;;;;;;2088808;28;20033;-79
2023/11/07 07:12:38;;;;;;;9.23;7.55;;;;;;;;;;2084077;28;20490;-79
2023/11/07 07:13:57;;;;;;;9.63;7.50;;;;;;;;;;2078031;28;20038;-80
2023/11/07 07:15:17;;;;;;;7.20;6.50;;;;;;;;;;2079564;28;20113;-80
2023/11/07 07:16:37;;;;;;;7.15;6.43;;;;;;;;;;2079197;28;20021;-80
2023/11/07 07:17:56;;;;;;;6.93;6.38;;;;;;;;;;2079392;28;20037;-80
2023/11/07 07:19:18;;;;;;;7.03;6.43;;;;;;;;;;2080104;28;20101;-79
2023/11/07 07:20:37;;;;;;;8.03;7.23;;;;;;;;;;2078599;28;20065;-80
2023/11/07 07:21:56;;;;;;;7.53;6.82;;;;;;;;;;2077700;28;20234;-80
2023/11/07 07:23:15;;;;;;;7.30;6.55;;;;;;;;;;2080474;28;20021;-80
2023/11/07 07:24:35;;;;;;;7.95;7.25;;;;;;;;;;2077106;28;20033;-81
2023/11/07 07:25:55;;;;;;;8.90;7.10;;;;;;;;;;2076389;28;20561;-80
2023/11/07 07:27:15;;;;;;;8.02;7.28;;;;;;;;;;2077014;28;20029;-80
2023/11/07 07:28:36;;;;;;;8.27;7.22;;;;;;;;;;2077938;28;20038;-80
2023/11/07 07:29:57;;;;;;;7.65;7.00;;;;;;;;;;2086840;28;20025;-80
2023/11/07 07:31:19;;;;;;;8.88;7.82;;;;;;;;;;2078314;28;20037;-80
2023/11/07 07:32:41;;;;;;;8.38;7.47;;;;;;;;;;2075354;28;20038;-79
2023/11/07 07:33:59;;;;;;;9.05;8.13;;;;;;;;;;2077140;28;20049;-80
2023/11/07 07:35:20;;;;;;;8.95;7.63;;;;;;;;;;2075635;28;20021;-81
2023/11/07 07:36:47;;;;;;;11.07;8.45;;;;;;;;;;2080191;28;20030;-80
2023/11/07 07:38:09;;;;;;;11.10;7.80;;;;;;;;;;2081009;28;20037;-79
2023/11/07 07:39:27;;;;;;;9.32;8.00;;;;;;;;;;2076610;28;20030;-79
2023/11/07 07:40:46;;;;;;;8.82;7.72;;;;;;;;;;2076233;28;20022;-78
2023/11/07 07:42:11;;;;;;;10.15;9.07;;;;;;;;;;2075569;28;20556;-79
2023/11/07 07:43:31;;;;;;;10.35;8.68;;;;;;;;;;2078255;28;20041;-78
2023/11/07 07:44:50;;;;;;;11.52;8.70;;;;;;;;;;2081139;28;20049;-79
2023/11/07 07:46:10;;;;;;;10.60;8.85;;;;;;;;;;2080899;28;20029;-79
2023/11/07 07:47:29;;;;;;;12.18;8.95;;;;;;;;;;2080439;28;20030;-79
2023/11/07 07:48:48;;;;;;;11.32;8.82;;;;;;;;;;2077159;28;20030;-80
2023/11/07 07:50:10;;;;;;;11.35;8.27;;;;;;;;;;2081556;28;20021;-80
2023/11/07 07:51:29;;;;;;;9.98;7.50;;;;;;;;;;2081139;28;20041;-80
2023/11/07 07:52:54;;;;;;;8.18;7.25;;;;;;;;;;2076170;28;20041;-79
2023/11/07 07:54:13;;;;;;;9.27;7.10;;;;;;;;;;2079681;28;20037;-80
2023/11/07 07:55:32;;;;;;;9.18;6.72;;;;;;;;;;2079465;28;20080;-79
2023/11/07 07:56:54;;;;;;;7.72;6.97;;;;;;;;;;2080870;28;20136;-79